This is the latest recevied weather packets stored in our database for station/object W2OBX. If no packets are shown the sender has not sent any weather packets the latest 10 day(s).
| Time | Temp. | Humidity | Pressure | Rain* | Wind** | Luminosity | Snow |
|---|---|---|---|---|---|---|---|
| 1778181261 | 14.44° C | 93% | 1014.1 hPa | 0 mm | - | 35 W/m² | - |
| 1778180957 | 13.89° C | 94% | 1014.1 hPa | 0 mm | - | 69 W/m² | - |
| 1778180655 | 13.89° C | 93% | 1014.4 hPa | 0 mm | - | 75 W/m² | - |
| 1778180354 | 13.89° C | 95% | 1014.4 hPa | 0 mm | - | 72 W/m² | - |
| 1778180051 | 13.89° C | 94% | 1014 hPa | 0 mm | - | 146 W/m² | - |
| 1778179748 | 13.89° C | 96% | 1013.9 hPa | 0 mm | - | 153 W/m² | - |
| 1778179445 | 13.33° C | 97% | 1014.1 hPa | 0 mm | - | 90 W/m² | - |
| 1778179143 | 13.33° C | 96% | 1014.3 hPa | 0 mm | - | 78 W/m² | - |
| 1778178839 | 13.33° C | 97% | 1014.4 hPa | 0 mm | - | 83 W/m² | - |
| 1778178537 | 13.33° C | 97% | 1014.2 hPa | 0 mm | - | 64 W/m² | - |
| 1778178232 | 12.78° C | 97% | 1014.3 hPa | 0 mm | - | 43 W/m² | - |
| 1778177929 | 12.78° C | 97% | 1014.3 hPa | 0 mm | - | 47 W/m² | - |
| 1778177625 | 12.78° C | 97% | 1014.4 hPa | 0 mm | - | 39 W/m² | - |
| 1778177322 | 12.78° C | 98% | 1014.5 hPa | 0 mm | - | 48 W/m² | - |
| 1778177019 | 12.78° C | 97% | 1014.5 hPa | 0 mm | - | 44 W/m² | - |
| 1778176714 | 12.78° C | 98% | 1014.5 hPa | 0 mm | - | 38 W/m² | - |
| 1778176412 | 12.78° C | 98% | 1014.6 hPa | 0 mm | - | 34 W/m² | - |
| 1778176109 | 12.78° C | 98% | 1014.7 hPa | 0 mm | - | 37 W/m² | - |
| 1778175806 | 12.22° C | 97% | 1014.7 hPa | 0 mm | - | 27 W/m² | - |
| 1778175504 | 12.22° C | 97% | 1014.7 hPa | 0 mm | - | 27 W/m² | - |
| 1778175201 | 12.22° C | 97% | 1014.7 hPa | 0 mm | - | 36 W/m² | - |
| 1778174897 | 12.78° C | 97% | 1014.7 hPa | 0 mm | - | 34 W/m² | - |
| 1778174594 | 12.78° C | 97% | 1014.8 hPa | 0 mm | - | 23 W/m² | - |
| 1778174289 | 12.78° C | 97% | 1014.9 hPa | 0 mm | - | 36 W/m² | - |
| 1778173987 | 12.78° C | 97% | 1014.7 hPa | 0 mm | - | 37 W/m² | - |
* Rain latest hour (hover to see other rain measurements)
** Current wind speed in m/s (hover to see current wind gust speed)